createdAt,value
2023-03-01T00:01:17.129Z,59.66
2023-03-01T00:03:45.169Z,59.80
2023-03-01T00:06:13.374Z,60.16
2023-03-01T00:08:41.318Z,59.69
2023-03-01T00:11:12.156Z,60.00
2023-03-01T00:13:40.243Z,59.78
2023-03-01T00:16:10.793Z,59.84
2023-03-01T00:18:40.007Z,60.24
2023-03-01T00:21:08.204Z,60.50
2023-03-01T00:23:36.626Z,60.69
2023-03-01T00:26:08.361Z,60.65
2023-03-01T00:28:37.614Z,60.42
2023-03-01T00:31:06.393Z,60.22
2023-03-01T00:33:34.324Z,60.47
2023-03-01T00:36:04.078Z,60.93
2023-03-01T00:38:32.026Z,60.71
2023-03-01T00:41:05.493Z,60.77
2023-03-01T00:43:37.567Z,61.33
2023-03-01T00:46:07.429Z,61.16
2023-03-01T00:48:35.610Z,60.90
2023-03-01T00:51:09.571Z,60.78
2023-03-01T00:53:38.197Z,61.22
2023-03-01T00:56:08.018Z,61.22
2023-03-01T00:58:36.677Z,61.49
2023-03-01T01:01:18.056Z,61.45
2023-03-01T01:03:48.102Z,61.05
2023-03-01T01:06:19.446Z,61.96
2023-03-01T01:08:47.384Z,61.69
2023-03-01T01:11:16.040Z,62.12
2023-03-01T01:13:45.497Z,62.36
2023-03-01T01:16:13.902Z,62.57
2023-03-01T01:18:41.832Z,62.11
2023-03-01T01:21:13.406Z,62.52
2023-03-01T01:23:44.752Z,62.10
2023-03-01T01:26:16.434Z,61.85
2023-03-01T01:28:44.309Z,61.43
2023-03-01T01:31:12.215Z,61.33
2023-03-01T01:33:40.086Z,61.56
2023-03-01T01:36:09.038Z,61.24
2023-03-01T01:38:37.736Z,60.77
2023-03-01T01:41:08.199Z,61.02
2023-03-01T01:43:38.318Z,60.89
2023-03-01T01:46:08.335Z,61.02
2023-03-01T01:48:42.356Z,60.84
2023-03-01T01:51:15.086Z,61.76
2023-03-01T01:53:45.977Z,61.47
2023-03-01T01:56:17.729Z,61.90
2023-03-01T01:58:46.767Z,61.93
2023-03-01T02:01:14.669Z,62.86
2023-03-01T02:03:46.758Z,62.44
2023-03-01T02:06:20.107Z,63.15
2023-03-01T02:08:50.679Z,62.36
2023-03-01T02:11:20.717Z,62.12
2023-03-01T02:13:50.628Z,62.37
2023-03-01T02:16:19.472Z,61.93
2023-03-01T02:18:47.572Z,61.62
2023-03-01T02:21:26.255Z,61.84
2023-03-01T02:23:56.525Z,61.84
2023-03-01T02:26:34.838Z,61.78
2023-03-01T02:29:06.571Z,61.42
2023-03-01T02:31:42.843Z,61.32
2023-03-01T02:34:16.143Z,60.69
2023-03-01T02:36:49.038Z,60.41
2023-03-01T02:39:27.613Z,60.38
2023-03-01T02:41:56.803Z,60.54
2023-03-01T02:44:26.013Z,60.69
2023-03-01T02:46:57.675Z,60.68
2023-03-01T02:49:29.011Z,60.85
2023-03-01T02:52:35.668Z,60.12
2023-03-01T02:55:08.388Z,60.65
2023-03-01T02:57:38.930Z,60.17
2023-03-01T03:00:19.997Z,60.33
2023-03-01T03:02:50.056Z,60.34
2023-03-01T03:05:25.438Z,60.59
2023-03-01T03:07:56.439Z,60.42
2023-03-01T03:10:29.206Z,60.32
2023-03-01T03:12:58.963Z,60.63
2023-03-01T03:15:29.997Z,60.93
2023-03-01T03:17:59.355Z,60.90
2023-03-01T03:20:29.473Z,60.96
2023-03-01T03:23:00.078Z,61.41
2023-03-01T03:25:29.731Z,61.56
2023-03-01T03:27:58.906Z,61.74
2023-03-01T03:30:30.482Z,61.55
2023-03-01T03:32:59.605Z,61.77
2023-03-01T03:35:31.267Z,61.54
2023-03-01T03:38:03.539Z,61.80
2023-03-01T03:40:33.146Z,61.59
2023-03-01T03:43:01.049Z,61.59
2023-03-01T03:45:30.355Z,61.83
2023-03-01T03:47:58.290Z,61.72
2023-03-01T03:50:26.173Z,61.53
2023-03-01T03:52:54.322Z,61.39
2023-03-01T03:55:22.470Z,61.32
2023-03-01T03:57:52.596Z,61.84
2023-03-01T04:00:22.724Z,61.84
2023-03-01T04:02:57.408Z,61.76
2023-03-01T04:05:25.816Z,61.94
2023-03-01T04:08:01.963Z,61.76
2023-03-01T04:10:31.186Z,62.26
2023-03-01T04:12:59.268Z,62.45
2023-03-01T04:15:28.245Z,62.84
2023-03-01T04:17:57.774Z,63.27
2023-03-01T04:20:27.741Z,63.27
2023-03-01T04:23:00.376Z,63.49
2023-03-01T04:25:28.360Z,63.47
2023-03-01T04:27:56.167Z,63.09
2023-03-01T04:30:26.349Z,63.05
2023-03-01T04:32:54.182Z,63.00
2023-03-01T04:35:23.548Z,62.83
2023-03-01T04:37:51.887Z,62.44
2023-03-01T04:40:19.908Z,62.97
2023-03-01T04:42:48.296Z,63.18
2023-03-01T04:45:16.333Z,62.55
2023-03-01T04:47:46.879Z,62.53
2023-03-01T04:50:16.783Z,63.02
2023-03-01T04:52:46.841Z,62.37
2023-03-01T04:55:15.285Z,62.16
2023-03-01T04:57:43.173Z,62.55
2023-03-01T05:00:21.904Z,62.04
2023-03-01T05:02:54.148Z,62.19
2023-03-01T05:05:27.954Z,62.11
2023-03-01T05:07:59.957Z,62.29
2023-03-01T05:10:31.111Z,62.46
2023-03-01T05:12:59.332Z,62.27
2023-03-01T05:15:28.309Z,62.10
2023-03-01T05:17:59.524Z,61.58
2023-03-01T05:20:27.830Z,61.19
2023-03-01T05:22:59.519Z,61.26
2023-03-01T05:25:27.626Z,60.91
2023-03-01T05:27:55.497Z,61.18
2023-03-01T05:30:23.513Z,61.50
2023-03-01T05:32:56.678Z,61.04
2023-03-01T05:35:25.587Z,60.28
2023-03-01T05:37:53.653Z,60.18
2023-03-01T05:40:25.193Z,60.62
2023-03-01T05:42:55.786Z,60.86
2023-03-01T05:45:25.378Z,61.20
2023-03-01T05:47:53.872Z,61.64
2023-03-01T05:50:24.140Z,62.51
2023-03-01T05:52:53.562Z,62.92
2023-03-01T05:55:23.625Z,62.49
2023-03-01T05:57:52.110Z,62.75
2023-03-01T06:00:23.128Z,62.56
2023-03-01T06:02:51.268Z,62.50
2023-03-01T06:05:19.956Z,61.92
2023-03-01T06:07:47.946Z,62.26
2023-03-01T06:10:16.609Z,61.64
2023-03-01T06:12:45.983Z,62.30
2023-03-01T06:15:15.819Z,61.44
2023-03-01T06:17:45.426Z,61.53
2023-03-01T06:20:16.348Z,61.77
2023-03-01T06:22:45.060Z,61.42
2023-03-01T06:25:14.431Z,61.66
2023-03-01T06:27:42.435Z,60.99
2023-03-01T06:30:14.963Z,61.07
2023-03-01T06:32:43.857Z,60.94
2023-03-01T06:35:13.346Z,60.62
2023-03-01T06:37:41.618Z,60.88
2023-03-01T06:40:12.562Z,61.11
2023-03-01T06:42:42.299Z,60.47
2023-03-01T06:45:12.963Z,59.63
2023-03-01T06:47:40.847Z,60.33
2023-03-01T06:50:10.116Z,59.83
2023-03-01T06:52:38.089Z,59.62
2023-03-01T06:55:07.251Z,59.76
2023-03-01T06:57:35.196Z,59.99
2023-03-01T07:00:03.488Z,59.98
2023-03-01T07:02:33.097Z,60.10
2023-03-01T07:05:00.925Z,59.77
2023-03-01T07:07:28.810Z,60.19
2023-03-01T07:09:56.696Z,60.14
2023-03-01T07:12:24.559Z,59.49
2023-03-01T07:14:52.450Z,59.59
2023-03-01T07:17:20.466Z,59.65
2023-03-01T07:19:49.858Z,59.23
2023-03-01T07:22:17.755Z,59.77
2023-03-01T07:24:45.837Z,59.18
2023-03-01T07:27:13.729Z,58.47
2023-03-01T07:29:41.722Z,58.28
2023-03-01T07:32:09.707Z,58.14
2023-03-01T07:34:37.550Z,58.25
2023-03-01T07:37:06.725Z,57.78
2023-03-01T07:39:34.619Z,57.97
2023-03-01T07:42:02.464Z,57.91
2023-03-01T07:44:30.344Z,57.76
2023-03-01T07:46:59.111Z,57.90
2023-03-01T07:49:28.313Z,57.97
2023-03-01T07:51:56.254Z,57.88
2023-03-01T07:54:25.436Z,57.34
2023-03-01T07:56:53.276Z,56.80
2023-03-01T07:59:21.168Z,56.56
2023-03-01T08:01:49.083Z,56.11
2023-03-01T08:04:17.031Z,55.63
2023-03-01T08:06:45.020Z,55.54
2023-03-01T08:09:12.871Z,55.00
2023-03-01T08:11:42.116Z,54.81
2023-03-01T08:14:11.367Z,54.69
2023-03-01T08:16:39.429Z,54.65
2023-03-01T08:19:07.578Z,54.39
2023-03-01T08:21:36.473Z,54.08
2023-03-01T08:24:05.244Z,53.73
2023-03-01T08:26:33.374Z,53.63
2023-03-01T08:29:03.143Z,53.64
2023-03-01T08:31:33.358Z,53.44
2023-03-01T08:34:04.076Z,53.71
2023-03-01T08:36:34.277Z,53.36
2023-03-01T08:39:02.855Z,53.73
2023-03-01T08:41:30.938Z,54.10
2023-03-01T08:44:00.460Z,54.43
2023-03-01T08:46:31.427Z,54.76
2023-03-01T08:48:59.669Z,55.21
2023-03-01T08:51:28.227Z,54.91
2023-03-01T08:53:56.094Z,55.31
2023-03-01T08:56:23.936Z,55.71
2023-03-01T08:58:51.772Z,55.92
2023-03-01T09:01:21.316Z,55.67
2023-03-01T09:03:50.640Z,55.68
2023-03-01T09:06:18.759Z,54.98
2023-03-01T09:08:48.256Z,54.68
2023-03-01T09:11:18.934Z,54.15
2023-03-01T09:13:47.534Z,53.58
2023-03-01T09:16:17.611Z,53.56
2023-03-01T09:18:45.862Z,53.80
2023-03-01T09:21:18.322Z,53.84
2023-03-01T09:23:49.306Z,53.97
2023-03-01T09:26:20.121Z,53.62
2023-03-01T09:28:48.781Z,53.40
2023-03-01T09:31:18.865Z,53.78
2023-03-01T09:33:49.158Z,53.15
2023-03-01T09:36:20.899Z,53.51
2023-03-01T09:38:49.408Z,52.87
2023-03-01T09:41:33.186Z,52.13
2023-03-01T09:44:05.846Z,51.55
2023-03-01T09:46:42.797Z,52.18
2023-03-01T09:49:14.270Z,51.97
2023-03-01T09:51:46.325Z,51.39
2023-03-01T09:54:14.259Z,51.32
2023-03-01T09:56:48.026Z,50.84
2023-03-01T09:59:25.239Z,50.78
2023-03-01T10:02:01.268Z,50.62
2023-03-01T10:04:41.295Z,50.18
2023-03-01T10:07:23.819Z,49.66
2023-03-01T10:09:51.764Z,49.54
2023-03-01T10:12:23.946Z,50.83
2023-03-01T10:14:59.722Z,51.00
2023-03-01T10:17:32.666Z,50.66
2023-03-01T10:20:17.504Z,50.50
2023-03-01T10:22:51.500Z,50.70
2023-03-01T10:25:32.955Z,51.12
2023-03-01T10:28:07.499Z,50.50
2023-03-01T10:30:39.562Z,51.38
2023-03-01T10:33:18.586Z,50.74
2023-03-01T10:35:46.526Z,51.13
2023-03-01T10:38:17.309Z,50.86
2023-03-01T10:40:57.986Z,50.64
2023-03-01T10:43:27.607Z,50.31
2023-03-01T10:45:55.607Z,50.38
2023-03-01T10:48:27.118Z,50.96
2023-03-01T10:51:07.933Z,50.42
2023-03-01T10:53:42.427Z,50.32
2023-03-01T10:56:13.092Z,49.88
2023-03-01T10:58:42.635Z,50.17
2023-03-01T11:01:29.976Z,49.46
2023-03-01T11:04:12.915Z,49.05
2023-03-01T11:06:42.321Z,49.43
2023-03-01T11:09:20.420Z,49.03
2023-03-01T11:11:53.710Z,48.74
2023-03-01T11:14:27.190Z,48.50
2023-03-01T11:17:01.857Z,48.38
2023-03-01T11:19:29.822Z,47.95
2023-03-01T11:22:03.878Z,47.54
2023-03-01T11:24:41.724Z,47.45
2023-03-01T11:27:19.341Z,47.57
2023-03-01T11:29:52.100Z,47.36
2023-03-01T11:32:23.246Z,46.51
2023-03-01T11:34:56.834Z,46.61
2023-03-01T11:37:35.743Z,46.48
2023-03-01T11:40:14.634Z,46.02
2023-03-01T11:42:57.074Z,46.08
2023-03-01T11:45:26.968Z,45.85
2023-03-01T11:48:14.096Z,45.86
2023-03-01T11:50:44.178Z,45.63
2023-03-01T11:53:30.906Z,45.29
2023-03-01T11:56:16.343Z,45.28
2023-03-01T11:59:00.580Z,45.25
2023-03-01T12:01:46.316Z,45.05
2023-03-01T12:04:38.716Z,45.07
2023-03-01T12:07:12.717Z,44.78
2023-03-01T12:09:50.249Z,44.60
2023-03-01T12:12:46.714Z,44.83
2023-03-01T12:15:31.465Z,44.68
2023-03-01T12:18:20.600Z,44.33
2023-03-01T12:20:56.951Z,44.51
2023-03-01T12:23:47.560Z,44.61
2023-03-01T12:26:33.110Z,44.78
2023-03-01T12:29:33.614Z,44.69
2023-03-01T12:32:42.427Z,44.98
2023-03-01T12:35:30.082Z,44.94
2023-03-01T12:38:08.485Z,45.21
2023-03-01T12:41:04.365Z,44.91
2023-03-01T12:43:43.466Z,44.58
2023-03-01T12:46:25.862Z,44.66
2023-03-01T12:49:04.015Z,44.63
2023-03-01T12:51:35.759Z,44.23
2023-03-01T12:54:13.798Z,44.07
2023-03-01T12:56:42.224Z,44.61
2023-03-01T12:59:17.299Z,44.42
2023-03-01T13:01:54.148Z,44.31
2023-03-01T13:04:39.732Z,44.29
2023-03-01T13:07:21.408Z,44.33
2023-03-01T13:10:02.401Z,44.24
2023-03-01T13:12:51.770Z,44.54
2023-03-01T13:15:35.036Z,44.63
2023-03-01T13:18:06.738Z,44.75
2023-03-01T13:20:48.999Z,44.76
2023-03-01T13:23:27.807Z,44.56
2023-03-01T13:26:04.787Z,44.85
2023-03-01T13:28:51.587Z,45.04
2023-03-01T13:32:02.748Z,45.38
2023-03-01T13:35:05.997Z,45.47
2023-03-01T13:37:36.452Z,45.23
2023-03-01T13:40:28.126Z,44.54
2023-03-01T13:43:05.728Z,44.82
2023-03-01T13:45:41.170Z,44.24
2023-03-01T13:48:13.102Z,43.70
2023-03-01T13:50:49.650Z,43.98
2023-03-01T13:53:21.004Z,43.87
2023-03-01T13:55:52.936Z,43.82
2023-03-01T13:58:24.750Z,43.76
2023-03-01T14:00:58.940Z,43.31
2023-03-01T14:03:27.458Z,43.11
2023-03-01T14:06:15.217Z,44.19
2023-03-01T14:08:45.734Z,43.54
2023-03-01T14:11:40.942Z,44.01
2023-03-01T14:14:30.118Z,43.26
2023-03-01T14:17:10.613Z,42.95
2023-03-01T14:19:38.724Z,43.43
2023-03-01T14:22:20.361Z,43.30
2023-03-01T14:24:50.714Z,43.41
2023-03-01T14:27:19.231Z,43.27
2023-03-01T14:29:56.759Z,43.11
2023-03-01T14:32:27.348Z,43.32
2023-03-01T14:34:56.121Z,43.27
2023-03-01T14:37:28.071Z,43.39
2023-03-01T14:39:57.789Z,43.41
2023-03-01T14:42:29.170Z,44.21
2023-03-01T14:44:59.567Z,44.16
2023-03-01T14:47:30.664Z,43.71
2023-03-01T14:50:01.531Z,43.70
2023-03-01T14:52:36.935Z,43.39
2023-03-01T14:55:07.174Z,43.04
2023-03-01T14:57:35.324Z,42.96
2023-03-01T15:00:06.206Z,43.45
2023-03-01T15:02:36.106Z,42.92
2023-03-01T15:05:08.628Z,43.22
2023-03-01T15:07:42.509Z,43.19
2023-03-01T15:10:21.468Z,43.75
2023-03-01T15:12:49.827Z,44.27
2023-03-01T15:15:40.403Z,44.00
2023-03-01T15:18:17.945Z,44.18
2023-03-01T15:20:46.569Z,43.91
2023-03-01T15:23:23.515Z,44.00
2023-03-01T15:25:57.331Z,44.71
2023-03-01T15:28:27.348Z,45.08
2023-03-01T15:30:59.410Z,44.78
2023-03-01T15:33:38.915Z,44.56
2023-03-01T15:36:35.225Z,44.82
2023-03-01T15:39:07.193Z,45.99
2023-03-01T15:41:47.432Z,45.17
2023-03-01T15:44:19.966Z,45.87
2023-03-01T15:46:50.000Z,45.96
2023-03-01T15:49:33.019Z,46.59
2023-03-01T15:52:01.109Z,46.36
2023-03-01T15:54:31.376Z,46.03
2023-03-01T15:56:59.491Z,45.95
2023-03-01T15:59:27.377Z,45.73
2023-03-01T16:01:55.268Z,46.66
2023-03-01T16:04:24.126Z,46.45
2023-03-01T16:06:56.117Z,46.91
2023-03-01T16:09:25.316Z,47.39
2023-03-01T16:11:55.459Z,47.03
2023-03-01T16:14:23.426Z,47.15
2023-03-01T16:16:51.486Z,47.41
2023-03-01T16:19:19.489Z,47.73
2023-03-01T16:21:50.814Z,48.25
2023-03-01T16:24:18.813Z,48.24
2023-03-01T16:26:46.930Z,48.74
2023-03-01T16:29:17.228Z,48.80
2023-03-01T16:31:45.206Z,49.29
2023-03-01T16:34:13.849Z,49.56
2023-03-01T16:36:42.015Z,49.72
2023-03-01T16:39:11.396Z,49.64
2023-03-01T16:41:39.236Z,49.68
2023-03-01T16:44:07.173Z,49.95
2023-03-01T16:46:36.490Z,49.84
2023-03-01T16:49:04.851Z,50.85
2023-03-01T16:51:35.709Z,50.57
2023-03-01T16:54:05.491Z,50.99
2023-03-01T16:56:35.213Z,51.61
2023-03-01T16:59:05.712Z,51.47
2023-03-01T17:01:38.589Z,52.13
2023-03-01T17:04:06.941Z,51.91
2023-03-01T17:06:34.847Z,52.55
2023-03-01T17:09:02.737Z,52.96
2023-03-01T17:11:31.058Z,52.68
2023-03-01T17:13:59.168Z,52.91
2023-03-01T17:16:27.802Z,53.35
2023-03-01T17:18:57.585Z,53.03
2023-03-01T17:21:25.701Z,53.65
2023-03-01T17:23:57.423Z,53.50
2023-03-01T17:26:25.297Z,54.19
2023-03-01T17:28:53.197Z,54.23
2023-03-01T17:31:21.411Z,54.42
2023-03-01T17:33:50.111Z,55.39
2023-03-01T17:36:19.793Z,55.86
2023-03-01T17:38:47.830Z,55.93
2023-03-01T17:41:17.827Z,56.67
2023-03-01T17:43:45.701Z,56.10
2023-03-01T17:46:13.800Z,56.88
2023-03-01T17:48:41.646Z,56.52
2023-03-01T17:51:11.256Z,57.23
2023-03-01T17:53:40.616Z,57.62
2023-03-01T17:56:10.095Z,57.48
2023-03-01T17:58:39.322Z,58.42
2023-03-01T18:01:12.462Z,58.36
2023-03-01T18:03:41.071Z,58.43
2023-03-01T18:06:14.405Z,57.88
2023-03-01T18:08:45.292Z,57.80
2023-03-01T18:11:13.497Z,58.23
2023-03-01T18:13:41.654Z,58.23
2023-03-01T18:16:11.888Z,58.23
2023-03-01T18:18:39.788Z,57.92
2023-03-01T18:21:08.137Z,58.41
2023-03-01T18:23:37.008Z,58.94
2023-03-01T18:26:08.788Z,59.09
2023-03-01T18:28:37.361Z,59.14
2023-03-01T18:31:08.512Z,59.44
2023-03-01T18:33:36.586Z,58.89
2023-03-01T18:36:05.309Z,58.89
2023-03-01T18:38:33.714Z,59.07
2023-03-01T18:41:01.602Z,59.41
2023-03-01T18:43:32.806Z,59.37
2023-03-01T18:46:01.568Z,58.89
2023-03-01T18:48:30.068Z,59.19
2023-03-01T18:50:58.051Z,60.11
2023-03-01T18:53:26.013Z,60.52
2023-03-01T18:55:53.908Z,60.53
2023-03-01T18:58:21.754Z,60.85
2023-03-01T19:00:51.027Z,60.28
2023-03-01T19:03:18.860Z,60.18
2023-03-01T19:05:47.134Z,61.01
2023-03-01T19:08:15.054Z,61.05
2023-03-01T19:10:43.079Z,61.08
2023-03-01T19:13:11.191Z,60.71
2023-03-01T19:15:39.136Z,60.78
2023-03-01T19:18:09.641Z,61.25
2023-03-01T19:20:39.431Z,61.13
2023-03-01T19:23:08.059Z,61.33
2023-03-01T19:25:36.395Z,61.03
2023-03-01T19:28:04.590Z,61.79
2023-03-01T19:30:32.449Z,61.06
2023-03-01T19:33:00.403Z,61.61
2023-03-01T19:35:29.856Z,61.13
2023-03-01T19:37:57.777Z,60.88
2023-03-01T19:40:25.770Z,61.59
2023-03-01T19:42:53.620Z,61.09
2023-03-01T19:45:31.900Z,61.28
2023-03-01T19:48:01.067Z,61.07
2023-03-01T19:50:30.374Z,61.69
2023-03-01T19:52:58.378Z,61.90
2023-03-01T19:55:26.673Z,61.42
2023-03-01T19:57:54.600Z,61.30
2023-03-01T20:00:23.252Z,61.92
2023-03-01T20:02:51.221Z,61.80
2023-03-01T20:05:19.304Z,62.30
2023-03-01T20:07:48.647Z,62.15
2023-03-01T20:10:16.956Z,62.52
2023-03-01T20:12:45.015Z,62.33
2023-03-01T20:15:13.003Z,62.36
2023-03-01T20:17:40.900Z,62.24
2023-03-01T20:20:09.861Z,62.14
2023-03-01T20:22:37.838Z,62.30
2023-03-01T20:25:08.630Z,62.83
2023-03-01T20:27:36.591Z,63.15
2023-03-01T20:30:05.031Z,63.23
2023-03-01T20:32:33.061Z,63.87
2023-03-01T20:35:01.063Z,64.34
2023-03-01T20:37:28.981Z,64.51
2023-03-01T20:39:56.915Z,64.21
2023-03-01T20:42:26.169Z,64.29
2023-03-01T20:44:54.249Z,64.76
2023-03-01T20:47:23.139Z,64.27
2023-03-01T20:49:52.649Z,64.65
2023-03-01T20:52:20.546Z,64.44
2023-03-01T20:54:48.662Z,64.47
2023-03-01T20:57:16.584Z,64.91
2023-03-01T20:59:48.526Z,64.93
2023-03-01T21:02:16.881Z,65.08
2023-03-01T21:04:44.754Z,65.53
2023-03-01T21:07:12.561Z,65.41
2023-03-01T21:09:41.910Z,65.65
2023-03-01T21:12:10.276Z,65.66
2023-03-01T21:14:42.487Z,66.03
2023-03-01T21:17:13.632Z,65.88
2023-03-01T21:19:43.810Z,65.78
2023-03-01T21:22:11.884Z,65.70
2023-03-01T21:24:39.976Z,65.69
2023-03-01T21:27:07.875Z,65.46
2023-03-01T21:29:37.935Z,65.39
2023-03-01T21:32:06.755Z,65.48
2023-03-01T21:34:37.061Z,65.09
2023-03-01T21:37:06.001Z,65.37
2023-03-01T21:39:34.351Z,65.78
2023-03-01T21:42:04.072Z,66.04
2023-03-01T21:44:33.628Z,66.02
2023-03-01T21:47:01.642Z,65.78
2023-03-01T21:49:29.647Z,65.77
2023-03-01T21:51:58.892Z,65.75
2023-03-01T21:54:26.966Z,65.62
2023-03-01T21:56:54.941Z,65.80
2023-03-01T21:59:24.639Z,65.21
2023-03-01T22:01:53.042Z,65.72
2023-03-01T22:04:23.098Z,65.14
2023-03-01T22:06:54.299Z,65.15
2023-03-01T22:09:24.463Z,65.01
2023-03-01T22:11:58.315Z,64.52
2023-03-01T22:14:26.641Z,64.69
2023-03-01T22:16:54.691Z,64.91
2023-03-01T22:19:23.049Z,64.94
2023-03-01T22:21:52.863Z,64.76
2023-03-01T22:24:25.101Z,64.84
2023-03-01T22:26:54.345Z,64.99
2023-03-01T22:29:24.325Z,64.80
2023-03-01T22:31:52.958Z,64.61
2023-03-01T22:34:21.446Z,65.27
2023-03-01T22:36:49.654Z,65.22
2023-03-01T22:39:19.987Z,65.41
2023-03-01T22:41:50.695Z,65.84
2023-03-01T22:44:20.672Z,65.38
2023-03-01T22:46:48.999Z,65.36
2023-03-01T22:49:17.705Z,65.16
2023-03-01T22:51:47.402Z,64.51
2023-03-01T22:54:16.170Z,64.61
2023-03-01T22:56:44.418Z,64.55
2023-03-01T22:59:15.151Z,64.54
2023-03-01T23:01:47.619Z,64.47
2023-03-01T23:04:16.402Z,64.41
2023-03-01T23:06:51.646Z,64.02
2023-03-01T23:09:21.122Z,63.81
2023-03-01T23:11:48.965Z,63.27
2023-03-01T23:14:18.284Z,63.29
2023-03-01T23:16:46.612Z,62.94
2023-03-01T23:19:16.408Z,62.37
2023-03-01T23:21:48.476Z,62.15
2023-03-01T23:24:17.606Z,62.46
2023-03-01T23:26:45.781Z,62.52
2023-03-01T23:29:13.850Z,62.51
2023-03-01T23:31:42.996Z,62.64
2023-03-01T23:34:10.885Z,62.80
2023-03-01T23:36:39.171Z,62.92
2023-03-01T23:39:07.667Z,63.18
2023-03-01T23:41:35.962Z,62.86
2023-03-01T23:44:04.610Z,62.68
2023-03-01T23:46:35.551Z,62.29
2023-03-01T23:49:05.142Z,62.27
2023-03-01T23:51:33.010Z,62.40
2023-03-01T23:54:05.459Z,62.39
2023-03-01T23:56:35.954Z,62.61
2023-03-01T23:59:08.981Z,62.94
